Time;durP1;ratioP1;P1;durP2;ratioP2;P2;SDS_P1;SDS_P2;PMS_P1;PMS_P2;Temp;Humidity;BMP_temperature;BMP_pressure;BME280_temperature;BME280_humidity;BME280_pressure;Samples;Min_cycle;Max_cycle;Signal;HPM_P1;HPM_P2
2022/11/21 00:01:24;;;;;;;11.13;6.17;;;;;;;4.67;88.82;94827.55;1660249;86;21070;-72
2022/11/21 00:03:51;;;;;;;25.47;11.77;;;;;;;4.66;89.05;94831.05;1660366;86;21026;-72
2022/11/21 00:06:19;;;;;;;27.77;13.83;;;;;;;4.64;89.61;94828.88;1660750;86;21061;-72
2022/11/21 00:08:46;;;;;;;20.80;10.23;;;;;;;4.60;89.48;94828.91;1660984;86;21073;-72
2022/11/21 00:11:13;;;;;;;16.93;8.93;;;;;;;4.49;89.97;94825.09;1660784;86;21532;-73
2022/11/21 00:13:40;;;;;;;20.13;9.37;;;;;;;4.48;90.21;94828.11;1660742;86;21568;-73
2022/11/21 00:16:13;;;;;;;17.47;9.33;;;;;;;4.53;90.34;94822.41;1660797;86;21057;-73
2022/11/21 00:18:41;;;;;;;16.23;8.57;;;;;;;4.60;90.35;94818.46;1660862;86;21034;-73
2022/11/21 00:21:14;;;;;;;18.07;8.37;;;;;;;4.63;90.09;94810.59;1660646;86;21069;-73
2022/11/21 00:23:43;;;;;;;10.40;6.13;;;;;;;4.72;90.33;94804.85;1660841;86;21034;-74
2022/11/21 00:26:12;;;;;;;6.83;4.80;;;;;;;4.76;90.17;94805.27;1660928;86;21078;-72
2022/11/21 00:28:39;;;;;;;8.30;5.27;;;;;;;4.88;90.26;94808.19;1660910;86;21069;-72
2022/11/21 00:31:07;;;;;;;9.57;5.27;;;;;;;4.89;89.86;94798.17;1660795;86;21015;-72
2022/11/21 00:33:37;;;;;;;7.67;4.60;;;;;;;4.82;89.17;94799.11;1660614;86;21002;-72
2022/11/21 00:36:09;;;;;;;6.30;3.77;;;;;;;4.83;89.50;94792.98;1660915;86;21038;-73
2022/11/21 00:38:36;;;;;;;7.27;3.50;;;;;;;4.92;89.80;94793.36;1660807;86;21544;-73
2022/11/21 00:41:03;;;;;;;5.40;3.40;;;;;;;4.90;89.45;94782.91;1660668;86;21062;-72
2022/11/21 00:43:29;;;;;;;5.67;3.50;;;;;;;4.88;89.46;94790.34;1660797;86;21105;-73
2022/11/21 00:45:58;;;;;;;4.50;3.33;;;;;;;4.92;90.07;94781.59;1660847;86;21524;-73
2022/11/21 00:48:24;;;;;;;5.50;3.47;;;;;;;4.96;90.00;94772.81;1660731;86;21053;-73
2022/11/21 00:50:51;;;;;;;4.57;3.00;;;;;;;4.91;88.90;94780.73;1660649;86;21046;-73
2022/11/21 00:53:18;;;;;;;5.30;3.37;;;;;;;4.83;88.99;94776.45;1660769;86;21377;-73
2022/11/21 00:55:45;;;;;;;6.07;3.37;;;;;;;4.88;89.65;94778.13;1660688;86;21042;-73
2022/11/21 00:58:12;;;;;;;7.87;5.07;;;;;;;4.91;89.56;94770.69;1660855;86;21095;-73
2022/11/21 01:00:38;;;;;;;7.43;4.20;;;;;;;4.88;89.10;94775.95;1660862;86;21364;-73
2022/11/21 01:03:04;;;;;;;6.67;3.93;;;;;;;4.80;88.79;94770.80;1660695;86;21049;-73
2022/11/21 01:05:32;;;;;;;5.27;3.30;;;;;;;4.70;88.78;94777.00;1660790;86;21054;-73
2022/11/21 01:07:58;;;;;;;6.43;3.80;;;;;;;4.62;88.58;94769.68;1660747;86;21065;-73
2022/11/21 01:10:26;;;;;;;4.63;2.87;;;;;;;4.53;88.78;94777.14;1660528;86;21868;-73
2022/11/21 01:12:53;;;;;;;4.30;2.00;;;;;;;4.48;88.63;94771.09;1660546;86;21078;-73
2022/11/21 01:15:19;;;;;;;3.97;1.90;;;;;;;4.40;88.72;94767.23;1660753;86;21548;-73
2022/11/21 01:17:46;;;;;;;7.30;4.03;;;;;;;4.33;89.20;94758.61;1660747;86;21010;-72
2022/11/21 01:20:14;;;;;;;2.37;1.47;;;;;;;4.28;89.91;94760.39;1660747;86;21037;-72
2022/11/21 01:22:41;;;;;;;3.87;2.27;;;;;;;4.30;89.79;94757.30;1660779;86;21524;-72
2022/11/21 01:25:07;;;;;;;3.20;1.60;;;;;;;4.38;90.07;94748.54;1660971;86;21018;-73
2022/11/21 01:27:34;;;;;;;3.43;1.70;;;;;;;4.41;89.95;94758.54;1660752;86;21078;-72
2022/11/21 01:30:01;;;;;;;7.23;3.20;;;;;;;4.48;90.22;94756.72;1660797;86;21057;-73
2022/11/21 01:32:28;;;;;;;4.50;2.00;;;;;;;4.47;89.83;94756.31;1660825;86;21041;-73
2022/11/21 01:34:54;;;;;;;2.60;1.10;;;;;;;4.49;89.90;94758.47;1667703;86;21548;-72
2022/11/21 01:37:21;;;;;;;1.87;1.00;;;;;;;4.51;89.77;94751.46;1674279;86;21077;-73
2022/11/21 01:39:47;;;;;;;1.30;0.90;;;;;;;4.52;89.65;94748.84;1674610;86;21057;-73
2022/11/21 01:42:14;;;;;;;1.40;0.87;;;;;;;4.50;89.36;94745.38;1674522;86;21162;-72
2022/11/21 01:44:52;;;;;;;1.83;1.10;;;;;;;4.48;89.14;94751.05;1674530;86;21020;-73
2022/11/21 01:47:21;;;;;;;1.37;0.90;;;;;;;4.42;89.06;94738.50;1674499;85;21109;-72
2022/11/21 01:49:49;;;;;;;2.33;1.00;;;;;;;4.38;89.06;94739.40;1674596;86;21049;-73
2022/11/21 01:52:24;;;;;;;2.93;1.60;;;;;;;4.33;89.08;94725.06;1674410;86;21468;-73
2022/11/21 01:55:04;;;;;;;0.73;0.50;;;;;;;4.32;89.35;94724.20;1674131;85;21033;-73
2022/11/21 01:57:38;;;;;;;0.30;0.30;;;;;;;4.36;89.42;94722.45;1674486;86;21037;-73
2022/11/21 02:00:12;;;;;;;0.20;0.20;;;;;;;4.36;88.81;94724.17;1674180;85;21034;-73
2022/11/21 02:02:43;;;;;;;1.43;0.30;;;;;;;4.28;88.04;94722.52;1674605;85;21580;-72
2022/11/21 02:05:20;;;;;;;1.17;0.10;;;;;;;4.23;87.83;94711.66;1655292;86;21535;-72
2022/11/21 02:07:48;;;;;;;0.70;0.20;;;;;;;4.20;87.79;94716.47;1674591;85;21045;-72
2022/11/21 02:10:16;;;;;;;1.40;0.20;;;;;;;4.19;88.10;94708.23;1674500;86;21029;-72
2022/11/21 02:12:50;;;;;;;0.10;0.10;;;;;;;4.15;86.82;94699.98;1674486;86;21014;-73
2022/11/21 02:15:26;;;;;;;0.10;0.10;;;;;;;4.09;87.27;94700.91;1674754;86;21073;-72
2022/11/21 02:17:53;;;;;;;0.83;0.20;;;;;;;4.09;87.57;94698.30;1674578;86;21048;-72
2022/11/21 02:20:26;;;;;;;0.37;0.20;;;;;;;4.06;87.33;94693.11;1674320;86;21076;-73
2022/11/21 02:23:27;;;;;;;0.25;0.10;;;;;;;4.09;87.39;94693.08;1655734;86;21033;-73
2022/11/21 02:25:54;;;;;;;0.10;0.10;;;;;;;4.04;86.57;94689.63;1674615;85;21496;-73
2022/11/21 02:28:23;;;;;;;0.27;0.10;;;;;;;4.04;87.03;94684.86;1674558;86;21037;-73
2022/11/21 02:30:50;;;;;;;0.20;0.20;;;;;;;4.01;86.61;94684.89;1674692;86;21025;-73
2022/11/21 02:33:17;;;;;;;0.20;0.20;;;;;;;3.97;86.68;94685.78;1674510;85;21516;-73
2022/11/21 02:35:43;;;;;;;0.20;0.20;;;;;;;3.93;86.68;94683.65;1671067;85;21093;-73
2022/11/21 02:38:23;;;;;;;0.20;0.20;;;;;;;3.91;86.36;94686.70;1669952;85;21522;-73
2022/11/21 02:41:16;;;;;;;0.23;0.20;;;;;;;3.89;86.45;94671.05;1670070;85;21002;-73
2022/11/21 02:43:51;;;;;;;0.72;0.10;;;;;;;3.90;86.72;94667.54;1670441;86;21037;-73
2022/11/21 02:46:17;;;;;;;0.10;0.10;;;;;;;3.90;86.95;94662.33;1669412;86;21030;-72
2022/11/21 02:48:44;;;;;;;0.47;0.20;;;;;;;3.93;86.78;94661.88;1670276;86;21524;-73
2022/11/21 02:51:11;;;;;;;0.90;0.80;;;;;;;3.94;86.69;94654.05;1584773;89;21014;-72
2022/11/21 02:53:38;;;;;;;0.20;0.20;;;;;;;3.96;86.86;94655.35;1670243;86;21461;-72
2022/11/21 02:56:04;;;;;;;0.10;0.10;;;;;;;3.98;86.79;94647.94;1670361;85;21492;-72
2022/11/21 02:58:31;;;;;;;0.20;0.10;;;;;;;4.00;86.79;94653.13;1670316;86;21045;-72
2022/11/21 03:00:57;;;;;;;0.73;0.10;;;;;;;4.05;87.09;94646.98;1670255;85;21556;-72
2022/11/21 03:03:24;;;;;;;1.27;0.10;;;;;;;4.06;86.32;94645.26;1670233;86;21086;-72
2022/11/21 03:05:51;;;;;;;0.40;0.20;;;;;;;4.03;86.31;94643.95;1670242;86;21053;-72
2022/11/21 03:08:17;;;;;;;1.03;0.70;;;;;;;4.00;85.77;94642.23;1670145;86;21540;-72
2022/11/21 03:10:44;;;;;;;4.90;1.57;;;;;;;3.99;87.14;94637.05;1670451;85;21050;-73
2022/11/21 03:13:10;;;;;;;5.13;1.50;;;;;;;3.98;87.11;94636.19;1670349;85;21054;-73
2022/11/21 03:15:37;;;;;;;5.60;1.40;;;;;;;3.99;87.23;94637.05;1670168;85;21527;-72
2022/11/21 03:18:04;;;;;;;6.60;2.00;;;;;;;3.99;86.83;94634.44;1670354;85;21017;-73
2022/11/21 03:20:33;;;;;;;8.77;2.27;;;;;;;4.00;87.02;94630.49;1670074;86;20998;-73
2022/11/21 03:23:00;;;;;;;3.43;1.30;;;;;;;4.10;87.50;94626.06;1670276;86;21507;-73
2022/11/21 03:25:27;;;;;;;4.87;1.47;;;;;;;4.13;86.93;94629.94;1670209;86;21010;-73
2022/11/21 03:27:53;;;;;;;2.73;1.10;;;;;;;4.14;86.96;94627.77;1670326;86;21520;-73
2022/11/21 03:30:23;;;;;;;1.97;1.00;;;;;;;4.12;86.59;94621.70;1670236;86;21110;-73
2022/11/21 03:32:49;;;;;;;1.13;0.50;;;;;;;4.06;86.30;94612.63;1670155;86;21065;-73
2022/11/21 03:35:16;;;;;;;0.53;0.20;;;;;;;3.98;85.71;94620.53;1670121;86;21535;-72
2022/11/21 03:37:43;;;;;;;2.80;1.47;;;;;;;3.98;86.12;94624.86;1669947;86;21090;-72
2022/11/21 03:40:11;;;;;;;2.30;1.30;;;;;;;4.00;86.34;94613.97;1670293;85;21086;-73
2022/11/21 03:42:38;;;;;;;2.97;1.50;;;;;;;4.01;86.34;94621.80;1670106;86;21026;-72
2022/11/21 03:45:06;;;;;;;1.43;0.93;;;;;;;4.00;86.55;94615.28;1670306;86;21034;-72
2022/11/21 03:47:33;;;;;;;1.30;0.93;;;;;;;3.95;86.37;94610.54;1670209;86;21037;-72
2022/11/21 03:50:00;;;;;;;1.27;0.80;;;;;;;3.94;86.25;94606.22;1670228;85;21127;-72
2022/11/21 03:52:27;;;;;;;1.10;0.57;;;;;;;3.90;86.43;94610.13;1670107;86;21608;-73
2022/11/21 03:54:53;;;;;;;1.47;0.27;;;;;;;3.87;86.45;94611.91;1670477;85;21065;-72
2022/11/21 03:57:20;;;;;;;0.20;0.20;;;;;;;3.79;85.72;94607.20;1670209;86;21072;-73
2022/11/21 03:59:47;;;;;;;0.97;0.30;;;;;;;3.78;86.02;94605.05;1670259;86;21081;-72
2022/11/21 04:02:14;;;;;;;0.30;0.27;;;;;;;3.81;86.02;94605.02;1670228;86;21088;-72
2022/11/21 04:04:40;;;;;;;1.57;0.77;;;;;;;3.80;84.77;94609.78;1670208;86;21048;-73
2022/11/21 04:07:07;;;;;;;2.57;1.30;;;;;;;3.79;85.28;94600.23;1670135;86;21511;-72
2022/11/21 04:09:33;;;;;;;3.90;2.27;;;;;;;3.71;84.17;94596.84;1670176;86;21512;-73
2022/11/21 04:12:00;;;;;;;1.50;0.90;;;;;;;3.66;84.69;94596.87;1670111;86;21049;-73
2022/11/21 04:14:28;;;;;;;1.13;0.60;;;;;;;3.63;84.76;94590.83;1670055;86;21054;-73
2022/11/21 04:16:54;;;;;;;2.80;1.23;;;;;;;3.60;84.89;94583.89;1670197;85;21066;-73
2022/11/21 04:19:20;;;;;;;2.03;0.73;;;;;;;3.62;85.21;94589.08;1670140;86;21025;-72
2022/11/21 04:21:47;;;;;;;31.23;8.97;;;;;;;3.64;85.35;94582.11;1670137;86;21472;-72
2022/11/21 04:24:14;;;;;;;14.47;4.63;;;;;;;3.67;85.20;94578.16;1670258;86;21079;-72
2022/11/21 04:26:40;;;;;;;27.60;10.63;;;;;;;3.65;85.12;94576.89;1670112;86;21018;-72
2022/11/21 04:29:07;;;;;;;6.43;1.70;;;;;;;3.63;84.76;94573.42;1670181;85;21002;-73
2022/11/21 04:31:33;;;;;;;13.83;5.47;;;;;;;3.56;84.24;94570.88;1670204;85;21018;-72
2022/11/21 04:34:00;;;;;;;2.00;0.27;;;;;;;3.58;84.75;94569.98;1670336;86;21029;-73
2022/11/21 04:36:26;;;;;;;0.57;0.33;;;;;;;3.60;84.72;94562.13;1673829;85;21042;-73
2022/11/21 04:38:53;;;;;;;0.23;0.20;;;;;;;3.61;84.75;94562.13;1674431;86;21516;-72
2022/11/21 04:41:20;;;;;;;2.13;1.30;;;;;;;3.60;84.29;94562.13;1674491;86;21041;-72
2022/11/21 04:43:46;;;;;;;3.47;1.30;;;;;;;3.52;84.34;94567.86;1674610;86;21041;-73
2022/11/21 04:46:13;;;;;;;3.17;1.80;;;;;;;3.50;84.43;94568.30;1674550;86;20997;-73
2022/11/21 04:48:40;;;;;;;0.60;0.40;;;;;;;3.46;84.71;94567.03;1674615;85;21025;-73
2022/11/21 04:51:06;;;;;;;0.47;0.40;;;;;;;3.51;85.03;94562.23;1674591;85;21041;-73
2022/11/21 04:53:33;;;;;;;2.00;0.20;;;;;;;3.51;84.38;94558.31;1674547;85;21073;-73
2022/11/21 04:56:05;;;;;;;2.30;1.13;;;;;;;3.51;84.60;94555.27;1674579;86;21030;-73
2022/11/21 04:58:32;;;;;;;6.00;3.13;;;;;;;3.57;84.77;94559.55;1674551;86;21078;-73
2022/11/21 05:01:07;;;;;;;1.60;0.80;;;;;;;3.58;84.45;94559.55;1674518;86;21543;-72
2022/11/21 05:03:35;;;;;;;14.93;6.80;;;;;;;3.62;84.38;94557.33;1674661;86;20997;-72
2022/11/21 05:06:02;;;;;;;25.10;11.20;;;;;;;3.60;84.01;94551.28;1674498;85;21033;-72
2022/11/21 05:08:28;;;;;;;1.53;0.77;;;;;;;3.64;84.35;94561.24;1674560;86;21037;-73
2022/11/21 05:13:40;;;;;;;2.80;1.53;;;;;;;3.67;84.47;94554.69;1674538;85;21047;-69
2022/11/21 05:16:06;;;;;;;3.77;2.23;;;;;;;3.75;84.70;94543.73;1655535;86;21021;-69
2022/11/21 05:18:33;;;;;;;1.80;0.90;;;;;;;3.76;84.27;94539.41;1674657;85;21551;-69
2022/11/21 05:21:01;;;;;;;21.90;8.40;;;;;;;3.73;83.43;94542.91;1674851;86;21607;-69
2022/11/21 05:23:28;;;;;;;3.63;1.60;;;;;;;3.70;83.90;94545.52;1674606;86;21029;-69
2022/11/21 05:25:54;;;;;;;5.17;2.33;;;;;;;3.65;83.68;94542.09;1674603;85;21037;-69
2022/11/21 05:28:21;;;;;;;7.10;3.60;;;;;;;3.58;83.54;94549.53;1674538;86;21081;-69
2022/11/21 05:30:47;;;;;;;1.40;0.83;;;;;;;3.57;83.87;94551.28;1674484;85;21049;-69
2022/11/21 05:33:14;;;;;;;1.30;0.50;;;;;;;3.55;84.05;94553.03;1674589;86;21484;-69
2022/11/21 05:35:40;;;;;;;5.40;2.70;;;;;;;3.49;84.33;94553.55;1672448;85;21038;-69
2022/11/21 05:38:07;;;;;;;1.50;0.90;;;;;;;3.43;84.67;94547.50;1670025;85;21038;-70
2022/11/21 05:40:34;;;;;;;6.47;3.57;;;;;;;3.42;84.02;94546.20;1670353;86;21069;-69
2022/11/21 05:45:50;;;;;;;0.80;0.60;;;;;;;3.44;84.65;94544.45;1670244;86;21032;-69
2022/11/21 05:48:17;;;;;;;0.20;0.20;;;;;;;3.49;84.82;94546.58;1670270;86;21018;-69
2022/11/21 05:50:52;;;;;;;0.27;0.20;;;;;;;3.51;84.37;94539.61;1670017;85;21029;-69
2022/11/21 05:53:17;;;;;;;1.83;1.20;;;;;;;3.53;84.26;94541.78;1669764;86;21045;-69
2022/11/21 05:55:43;;;;;;;6.73;3.77;;;;;;;3.52;84.65;94548.30;1670113;85;21002;-73
2022/11/21 05:58:10;;;;;;;5.97;3.43;;;;;;;3.55;85.09;94552.17;1669066;86;21029;-71
2022/11/21 06:00:37;;;;;;;2.10;0.70;;;;;;;3.58;84.73;94559.55;1669569;86;21034;-74
2022/11/21 06:05:50;;;;;;;1.80;1.00;;;;;;;3.63;83.80;94552.55;1669890;86;21558;-73
2022/11/21 06:08:17;;;;;;;3.47;2.30;;;;;;;3.62;83.85;94550.80;1669982;86;20989;-68
2022/11/21 06:10:43;;;;;;;1.97;1.20;;;;;;;3.65;84.17;94549.50;1669909;85;21607;-73
2022/11/21 06:13:20;;;;;;;2.37;1.67;;;;;;;3.66;83.31;94541.23;1669072;86;21109;-72
2022/11/21 06:15:38;;;;;;;4.47;1.83;;;;;;;3.63;83.73;94538.66;1668174;86;21021;-76
2022/11/21 06:18:05;;;;;;;5.57;2.83;;;;;;;3.64;83.83;94542.98;1670030;85;21010;-69
2022/11/21 06:20:31;;;;;;;2.87;1.27;;;;;;;3.62;84.37;94544.28;1669955;86;21085;-67
2022/11/21 06:22:58;;;;;;;0.30;0.20;;;;;;;3.64;84.26;94541.23;1669209;85;21677;-71
2022/11/21 06:25:24;;;;;;;2.30;0.40;;;;;;;3.65;83.73;94552.52;1669912;85;21050;-67
2022/11/21 06:27:51;;;;;;;2.40;1.30;;;;;;;3.64;84.04;94550.80;1670005;85;21081;-71
2022/11/21 06:30:17;;;;;;;1.87;0.60;;;;;;;3.61;84.08;94549.09;1669618;86;21038;-75
2022/11/21 06:32:44;;;;;;;0.40;0.30;;;;;;;3.60;84.17;94554.30;1670046;85;21049;-67
2022/11/21 06:35:10;;;;;;;0.30;0.20;;;;;;;3.58;83.71;94566.48;1669727;85;21053;-68
2022/11/21 06:37:37;;;;;;;0.50;0.40;;;;;;;3.56;83.65;94566.97;1669549;86;21057;-70
2022/11/21 06:40:05;;;;;;;9.70;5.47;;;;;;;3.52;83.79;94563.95;1669919;86;21500;-68
2022/11/21 06:42:32;;;;;;;5.80;3.53;;;;;;;3.51;84.10;94562.23;1670271;86;21065;-67
2022/11/21 06:44:59;;;;;;;9.73;5.17;;;;;;;3.44;83.70;94558.80;1669792;86;21154;-70
2022/11/21 06:47:25;;;;;;;7.00;3.93;;;;;;;3.42;84.26;94564.01;1669579;86;21226;-67
2022/11/21 06:49:52;;;;;;;3.77;1.80;;;;;;;3.44;84.18;94563.56;1669979;86;21476;-69
2022/11/21 06:52:18;;;;;;;4.10;2.70;;;;;;;3.46;83.86;94562.27;1669993;86;21453;-67
2022/11/21 06:54:45;;;;;;;2.50;1.30;;;;;;;3.50;84.43;94563.95;1670027;86;21032;-65
2022/11/21 06:57:12;;;;;;;9.17;4.97;;;;;;;3.56;84.40;94567.83;1670103;85;21021;-65
2022/11/21 06:59:38;;;;;;;6.43;4.10;;;;;;;3.56;84.15;94579.56;1669656;86;21041;-67
2022/11/21 07:02:05;;;;;;;2.00;1.10;;;;;;;3.58;84.16;94573.90;1670028;86;21033;-67
2022/11/21 07:04:31;;;;;;;4.73;3.40;;;;;;;3.61;83.74;94569.09;1669578;85;21630;-69
2022/11/21 07:06:58;;;;;;;4.40;2.70;;;;;;;3.66;84.06;94575.14;1669058;85;21017;-66
2022/11/21 07:09:24;;;;;;;8.70;4.90;;;;;;;3.65;83.86;94566.87;1669131;86;21077;-70
2022/11/21 07:11:52;;;;;;;8.30;5.00;;;;;;;3.65;84.00;94559.05;1669852;86;21049;-69
2022/11/21 07:14:19;;;;;;;9.87;7.87;;;;;;;3.68;84.56;94563.81;1670023;85;21560;-67
2022/11/21 07:16:45;;;;;;;12.50;6.57;;;;;;;3.79;84.72;94565.02;1669624;86;20993;-69
2022/11/21 07:19:12;;;;;;;8.03;5.77;;;;;;;3.87;84.66;94557.97;1669991;85;21073;-67
2022/11/21 07:21:39;;;;;;;38.53;21.27;;;;;;;3.99;84.46;94562.66;1669685;85;21006;-71
2022/11/21 07:24:06;;;;;;;42.90;24.07;;;;;;;4.07;84.31;94558.22;1670030;85;21018;-66
2022/11/21 07:26:32;;;;;;;18.07;11.80;;;;;;;4.13;83.99;94558.15;1669604;86;21048;-67
2022/11/21 07:28:59;;;;;;;13.60;7.83;;;;;;;4.12;84.08;94560.34;1669826;85;21549;-67
2022/11/21 07:31:26;;;;;;;9.80;5.87;;;;;;;4.15;84.32;94554.23;1670092;86;21058;-72
2022/11/21 07:33:53;;;;;;;17.53;10.60;;;;;;;3.97;84.12;94552.23;1669952;86;21026;-70
2022/11/21 07:36:19;;;;;;;15.53;9.57;;;;;;;3.97;84.63;94548.31;1669920;86;21540;-68
2022/11/21 07:38:46;;;;;;;11.33;7.60;;;;;;;4.07;85.21;94554.31;1670035;86;21476;-68
2022/11/21 07:41:13;;;;;;;4.83;3.80;;;;;;;4.14;85.22;94554.67;1669710;86;21116;-66
2022/11/21 07:43:39;;;;;;;8.27;5.73;;;;;;;4.23;85.39;94548.03;1670091;86;21026;-66
2022/11/21 07:46:06;;;;;;;10.07;7.80;;;;;;;4.19;84.83;94552.02;1670204;85;20998;-69
2022/11/21 07:48:33;;;;;;;7.30;4.33;;;;;;;4.21;84.97;94563.28;1670082;85;21037;-66
2022/11/21 07:51:04;;;;;;;7.63;4.77;;;;;;;4.21;85.03;94570.70;1670277;86;21049;-68
2022/11/21 07:53:31;;;;;;;14.23;7.30;;;;;;;4.25;84.95;94573.69;1670057;86;21037;-67
2022/11/21 07:55:58;;;;;;;12.73;6.23;;;;;;;4.26;84.72;94578.50;1670164;85;21018;-68
2022/11/21 07:58:25;;;;;;;12.93;6.87;;;;;;;4.26;84.82;94574.58;1670196;86;21519;-65
2022/11/21 08:00:52;;;;;;;12.63;7.37;;;;;;;4.28;84.87;94570.18;1670245;86;21053;-68
2022/11/21 08:03:19;;;;;;;12.70;7.93;;;;;;;4.28;84.82;94578.02;1669908;85;21005;-69
2022/11/21 08:05:45;;;;;;;5.17;3.77;;;;;;;4.28;84.91;94575.40;1670125;86;21536;-67
2022/11/21 08:08:14;;;;;;;8.83;4.30;;;;;;;4.30;84.94;94580.17;1669962;86;21444;-70
2022/11/21 08:10:45;;;;;;;3.97;2.63;;;;;;;4.29;84.79;94586.29;1670206;86;21041;-72
2022/11/21 08:13:13;;;;;;;8.77;4.10;;;;;;;4.26;84.38;94582.41;1670170;86;21025;-68
2022/11/21 08:15:40;;;;;;;4.87;3.40;;;;;;;4.25;84.57;94580.66;1670034;86;21568;-67
2022/11/21 08:18:10;;;;;;;3.67;2.00;;;;;;;4.28;84.77;94578.91;1669682;86;21042;-69
2022/11/21 08:20:37;;;;;;;3.90;2.60;;;;;;;4.30;84.38;94579.72;1669940;86;21010;-65
2022/11/21 08:23:05;;;;;;;2.60;1.90;;;;;;;4.33;84.46;94590.58;1670038;86;21063;-68
2022/11/21 08:25:33;;;;;;;3.37;2.50;;;;;;;4.40;84.57;94583.11;1669356;85;21018;-68
2022/11/21 08:28:01;;;;;;;6.17;2.70;;;;;;;4.47;84.78;94583.91;1669737;86;21072;-66
2022/11/21 08:30:29;;;;;;;3.80;2.33;;;;;;;4.55;84.39;94584.68;1672893;85;21100;-71
2022/11/21 08:32:59;;;;;;;6.30;3.57;;;;;;;4.61;84.49;94587.66;1696060;85;21018;-66
2022/11/21 08:35:27;;;;;;;11.77;6.77;;;;;;;4.66;84.35;94580.21;1688445;85;21022;-67
2022/11/21 08:37:58;;;;;;;12.80;7.07;;;;;;;4.71;83.92;94578.41;1687667;85;21080;-73
2022/11/21 08:40:26;;;;;;;12.73;7.80;;;;;;;4.74;83.72;94581.42;1687869;85;21125;-70
2022/11/21 08:43:07;;;;;;;9.70;6.53;;;;;;;4.76;83.76;94587.05;1688126;85;21057;-70
2022/11/21 08:45:36;;;;;;;11.67;6.10;;;;;;;4.87;84.60;94586.91;1687617;85;21081;-67
2022/11/21 08:48:05;;;;;;;11.10;6.10;;;;;;;4.99;83.81;94577.60;1688157;85;21008;-70
2022/11/21 08:50:32;;;;;;;8.43;5.67;;;;;;;5.07;83.59;94584.48;1687436;85;21086;-72
2022/11/21 08:53:00;;;;;;;9.23;5.73;;;;;;;5.17;84.02;94586.08;1687263;85;21081;-67
2022/11/21 08:55:28;;;;;;;14.40;9.40;;;;;;;5.29;84.47;94585.91;1687734;85;21010;-68
2022/11/21 08:57:54;;;;;;;14.23;8.87;;;;;;;5.40;83.94;94585.30;1687443;85;21544;-67
2022/11/21 09:00:22;;;;;;;12.60;8.33;;;;;;;5.39;83.09;94581.38;1687719;85;21034;-69
2022/11/21 09:02:48;;;;;;;30.47;10.37;;;;;;;5.38;82.80;94585.76;1687920;85;21069;-68
2022/11/21 09:05:15;;;;;;;12.30;8.00;;;;;;;5.31;82.08;94578.02;1687294;85;21109;-72
2022/11/21 09:07:41;;;;;;;10.70;8.30;;;;;;;5.31;82.89;94588.03;1688096;85;21117;-67
2022/11/21 09:10:09;;;;;;;10.40;7.60;;;;;;;5.27;81.84;94585.52;1688226;85;21026;-74
2022/11/21 09:12:36;;;;;;;10.87;7.60;;;;;;;5.24;82.39;94584.23;1688107;85;21552;-71
2022/11/21 09:18:03;;;;;;;12.57;6.90;;;;;;;5.11;82.41;94583.09;1687766;85;21022;-66
2022/11/21 09:20:40;;;;;;;10.10;6.67;;;;;;;5.05;82.63;94592.78;1688214;85;21101;-67
2022/11/21 09:23:09;;;;;;;10.63;7.07;;;;;;;5.06;83.14;94584.90;1687442;85;21635;-67
2022/11/21 09:25:36;;;;;;;13.23;6.77;;;;;;;5.06;82.96;94587.52;1688282;85;21057;-66
2022/11/21 09:28:05;;;;;;;11.50;7.20;;;;;;;5.07;83.06;94592.33;1688490;85;21130;-69
2022/11/21 09:30:32;;;;;;;10.47;5.67;;;;;;;5.07;83.24;94585.34;1688467;85;21053;-71
2022/11/21 09:33:02;;;;;;;14.40;7.57;;;;;;;5.08;82.84;94581.83;1688143;85;21548;-68
2022/11/21 09:35:29;;;;;;;13.47;7.47;;;;;;;5.11;82.63;94576.55;1688537;85;21540;-69
2022/11/21 09:37:56;;;;;;;0.93;0.83;;;;;;;5.11;81.97;94579.16;1688350;85;21066;-67
2022/11/21 09:40:23;;;;;;;1.33;1.00;;;;;;;5.13;78.52;94583.08;1688090;85;21106;-73
2022/11/21 09:43:34;;;;;;;4.13;3.30;;;;;;;5.12;78.60;94578.30;1664747;85;21567;-69
2022/11/21 09:46:19;;;;;;;5.87;4.90;;;;;;;5.16;79.28;94579.96;1687669;85;21571;-72
2022/11/21 09:48:57;;;;;;;2.57;2.00;;;;;;;5.21;77.96;94578.59;1687819;85;21118;-68
2022/11/21 09:51:28;;;;;;;2.00;0.67;;;;;;;5.19;78.82;94587.79;1687587;85;21050;-68
2022/11/21 09:54:19;;;;;;;2.90;2.63;;;;;;;5.19;77.94;94590.41;1688453;85;21049;-71
2022/11/21 09:56:47;;;;;;;0.93;0.77;;;;;;;5.19;77.83;94585.17;1688359;85;20983;-68
2022/11/21 09:59:36;;;;;;;2.27;2.07;;;;;;;5.13;77.69;94579.16;1664445;85;21018;-71
2022/11/21 10:02:15;;;;;;;1.20;1.10;;;;;;;5.11;77.01;94580.92;1688193;85;21507;-70
2022/11/21 10:04:42;;;;;;;2.80;2.10;;;;;;;5.10;76.82;94582.67;1688420;85;21065;-69
2022/11/21 10:07:17;;;;;;;0.83;0.60;;;;;;;5.08;77.05;94584.44;1688158;85;21086;-70
2022/11/21 10:10:07;;;;;;;60.50;46.57;;;;;;;5.06;77.59;94579.67;1688265;85;21516;-70
2022/11/21 10:13:14;;;;;;;4.57;4.17;;;;;;;5.04;77.25;94578.85;1687596;85;21125;-70
2022/11/21 10:15:58;;;;;;;1.00;0.60;;;;;;;5.00;77.80;94577.16;1687405;85;21564;-70
2022/11/21 10:18:45;;;;;;;0.43;0.43;;;;;;;4.94;76.08;94574.63;1688143;85;21050;-70
2022/11/21 10:21:42;;;;;;;5.00;4.50;;;;;;;4.89;76.12;94574.69;1684796;85;21153;-70
2022/11/21 10:24:23;;;;;;;3.30;3.00;;;;;;;4.90;77.33;94576.41;1688003;85;21033;-71
2022/11/21 10:27:06;;;;;;;4.07;3.27;;;;;;;4.95;77.87;94567.20;1688359;85;21073;-71
2022/11/21 10:29:41;;;;;;;7.92;5.85;;;;;;;4.97;78.35;94570.67;1688506;85;21540;-71
2022/11/21 10:32:21;;;;;;;2.73;2.30;;;;;;;4.99;79.17;94568.91;1688036;85;21014;-71
2022/11/21 10:34:51;;;;;;;10.10;6.33;;;;;;;4.99;79.37;94562.36;1688546;85;21549;-70
2022/11/21 10:37:37;;;;;;;8.43;5.37;;;;;;;4.93;81.38;94572.44;1688293;85;21093;-70
2022/11/21 10:40:32;;;;;;;6.57;3.37;;;;;;;4.94;80.95;94570.27;1688496;85;21101;-70
2022/11/21 10:45:15;;;;;;;3.10;1.70;;;;;;;4.91;80.58;94558.97;1676533;85;21046;-70
2022/11/21 10:45:33;;;;;;;5.80;2.70;;;;;;;4.83;79.64;94556.45;1688844;85;21030;-70
2022/11/21 10:47:59;;;;;;;6.30;3.30;;;;;;;4.75;79.38;94551.33;1688530;85;21496;-70
2022/11/21 10:50:55;;;;;;;0.60;0.60;;;;;;;4.79;79.65;94550.87;1686933;85;21050;-70
2022/11/21 10:56:22;;;;;;;0.57;0.50;;;;;;;4.93;80.10;94558.52;1688780;85;21041;-71
2022/11/21 10:58:52;;;;;;;1.60;1.23;;;;;;;4.91;78.09;94570.31;1690038;85;21054;-70
2022/11/21 11:01:31;;;;;;;0.40;0.30;;;;;;;4.94;78.89;94576.80;1688301;85;21054;-70
2022/11/21 11:04:17;;;;;;;2.40;2.20;;;;;;;4.99;78.67;94574.13;1688604;85;21528;-70
2022/11/21 11:06:46;;;;;;;4.57;2.97;;;;;;;5.03;78.52;94569.71;1688704;85;21078;-71
2022/11/21 11:09:32;;;;;;;3.97;3.37;;;;;;;5.10;79.12;94564.83;1688635;85;21058;-70
2022/11/21 11:15:17;;;;;;;3.33;2.10;;;;;;;5.16;78.59;94564.72;1662875;86;21037;-70
2022/11/21 11:17:49;;;;;;;7.23;4.10;;;;;;;5.19;78.53;94557.72;1689011;85;21034;-70
2022/11/21 11:20:38;;;;;;;13.27;6.97;;;;;;;5.21;78.50;94561.59;1688845;85;21509;-70
2022/11/21 11:23:24;;;;;;;16.40;7.97;;;;;;;5.17;77.89;94558.63;1688778;85;21038;-70
2022/11/21 11:25:57;;;;;;;10.90;6.43;;;;;;;5.19;78.73;94552.48;1688766;85;21010;-69
2022/11/21 11:28:28;;;;;;;13.83;7.35;;;;;;;5.22;79.00;94546.34;1688947;85;21042;-70
2022/11/21 11:30:56;;;;;;;11.23;6.43;;;;;;;5.28;79.51;94547.55;1688608;85;21070;-70
2022/11/21 11:33:48;;;;;;;15.93;10.87;;;;;;;5.28;79.66;94531.86;1666984;85;21029;-70
2022/11/21 11:36:28;;;;;;;5.73;3.30;;;;;;;5.32;79.84;94533.55;1688995;85;21058;-70
2022/11/21 11:38:58;;;;;;;4.53;2.20;;;;;;;5.32;79.58;94530.94;1688504;85;21070;-70
2022/11/21 11:47:29;;;;;;;;;;;;;;;5.42;79.60;94531.20;1691133;85;21007;-71
2022/11/21 11:50:10;;;;;;;12.10;7.37;;;;;;;5.46;78.99;94541.62;1688987;85;20128;-72
2022/11/21 11:53:14;;;;;;;21.27;13.80;;;;;;;5.51;78.52;94528.87;1688907;85;21003;-71
2022/11/21 11:56:21;;;;;;;5.87;3.67;;;;;;;5.57;78.98;94525.31;1688461;85;21134;-71
2022/11/21 11:59:13;;;;;;;8.53;3.97;;;;;;;5.72;79.51;94526.37;1689084;85;21042;-70
2022/11/21 12:02:17;;;;;;;8.70;4.60;;;;;;;5.87;79.68;94523.90;1688513;85;21098;-70
2022/11/21 12:04:47;;;;;;;;;;;;;;;5.99;78.82;94534.19;1691064;85;21003;-71
2022/11/21 12:07:21;;;;;;;7.93;4.00;;;;;;;6.03;77.58;94520.16;1669746;85;20129;-71
2022/11/21 12:10:19;;;;;;;16.43;9.70;;;;;;;6.10;78.29;94523.97;1628029;88;21027;-71
2022/11/21 12:12:57;;;;;;;17.97;11.60;;;;;;;6.22;78.22;94519.81;1609657;89;21078;-70
2022/11/21 12:15:51;;;;;;;11.23;5.70;;;;;;;6.28;77.04;94523.64;1592284;90;21015;-70
2022/11/21 12:18:26;;;;;;;14.00;3.75;;;;;;;6.31;76.93;94530.13;1662615;86;21118;-70